Time;durP1;ratioP1;P1;durP2;ratioP2;P2;SDS_P1;SDS_P2;PMS_P1;PMS_P2;Temp;Humidity;BMP_temperature;BMP_pressure;BME280_temperature;BME280_humidity;BME280_pressure;Samples;Min_cycle;Max_cycle;Signal;HPM_P1;HPM_P2
2023/07/23 00:02:18;;;;;;;901.63;831.63;;;;;;;25.48;70.04;96870.34;5090812;28;20209;-70
2023/07/23 00:04:45;;;;;;;811.83;760.23;;;;;;;24.93;75.73;96838.31;5092422;28;20200;-72
2023/07/23 00:07:12;;;;;;;817.13;764.60;;;;;;;24.67;76.62;96842.84;5090534;28;20196;-78
2023/07/23 00:09:50;;;;;;;854.80;792.07;;;;;;;24.78;75.67;96869.09;5081990;27;1401885;-70
2023/07/23 00:12:17;;;;;;;739.60;692.53;;;;;;;25.03;75.25;96882.22;5106054;28;20197;-71
2023/07/23 00:14:44;;;;;;;824.43;770.63;;;;;;;25.65;73.13;96910.00;5105420;28;20559;-71
2023/07/23 00:17:11;;;;;;;833.93;777.93;;;;;;;26.17;73.54;96893.69;5087800;28;20216;-82
2023/07/23 00:19:38;;;;;;;850.83;794.93;;;;;;;26.42;71.90;96863.41;5086467;28;20195;-79
2023/07/23 00:22:05;;;;;;;868.03;809.47;;;;;;;26.33;68.92;96880.34;5107744;28;20187;-72
2023/07/23 00:24:32;;;;;;;875.53;815.90;;;;;;;26.56;65.12;96903.31;5103708;28;20756;-76
2023/07/23 00:26:59;;;;;;;756.00;705.50;;;;;;;26.52;64.18;96920.59;5104766;28;20245;-76
2023/07/23 00:29:26;;;;;;;788.30;738.53;;;;;;;26.91;66.74;96925.97;5102907;28;20253;-80
2023/07/23 00:31:55;;;;;;;869.07;812.83;;;;;;;27.05;67.58;96922.56;5084810;28;20424;-72
2023/07/23 00:34:22;;;;;;;836.27;782.57;;;;;;;27.18;68.51;96933.44;5086240;28;20184;-72
2023/07/23 00:36:49;;;;;;;763.60;712.70;;;;;;;27.26;68.23;96929.94;5083677;28;20212;-74
2023/07/23 00:39:16;;;;;;;875.40;818.97;;;;;;;27.24;67.53;96906.16;5104746;28;20188;-80
2023/07/23 00:41:43;;;;;;;878.57;821.03;;;;;;;27.10;67.57;96920.19;5068413;28;20183;-73
2023/07/23 00:44:10;;;;;;;873.77;816.70;;;;;;;27.13;67.72;96941.13;5086923;28;20249;-76
2023/07/23 00:46:37;;;;;;;844.40;791.20;;;;;;;27.04;68.01;96952.81;5068100;28;20199;-77
2023/07/23 00:49:05;;;;;;;737.53;687.30;;;;;;;26.84;68.55;96930.31;5064847;28;20255;-73
2023/07/23 00:51:33;;;;;;;725.30;678.23;;;;;;;26.87;68.19;96914.03;5083805;28;20247;-76
2023/07/23 00:54:00;;;;;;;760.33;709.43;;;;;;;26.90;68.28;96900.38;5081122;28;20586;-77
2023/07/23 00:56:28;;;;;;;779.03;727.80;;;;;;;26.93;68.57;96913.34;5086348;28;20220;-75
2023/07/23 00:58:55;;;;;;;806.30;753.17;;;;;;;26.79;68.65;96916.72;5084259;28;20198;-81
2023/07/23 01:01:22;;;;;;;812.00;758.77;;;;;;;26.91;68.02;96915.34;5103974;28;20203;-72
2023/07/23 01:03:52;;;;;;;807.80;755.23;;;;;;;27.02;66.57;96917.59;5102380;28;20596;-77
2023/07/23 01:06:21;;;;;;;838.00;784.23;;;;;;;26.92;65.18;96905.53;5068631;28;20188;-78
2023/07/23 01:08:50;;;;;;;533.30;498.70;;;;;;;26.82;64.80;96900.44;5065717;28;20664;-74
2023/07/23 01:11:17;;;;;;;481.43;448.50;;;;;;;26.63;66.10;96900.81;5082649;28;20197;-74
2023/07/23 01:13:44;;;;;;;513.53;478.77;;;;;;;26.57;66.62;96917.44;5085924;28;20244;-78
2023/07/23 01:16:12;;;;;;;601.13;559.53;;;;;;;26.53;66.76;96918.78;5082123;28;20675;-84
2023/07/23 01:18:40;;;;;;;673.97;628.13;;;;;;;26.55;66.25;96940.69;5084381;28;20253;-78
2023/07/23 01:21:09;;;;;;;697.77;652.30;;;;;;;26.57;65.63;96928.91;5068552;28;20189;-79
2023/07/23 01:23:37;;;;;;;664.17;618.43;;;;;;;26.42;66.69;96919.19;5069691;28;20249;-74
2023/07/23 01:26:04;;;;;;;640.67;598.17;;;;;;;26.40;66.53;96923.81;5068669;28;20199;-76
2023/07/23 01:28:31;;;;;;;650.43;606.40;;;;;;;26.38;66.94;96933.78;5068648;28;20714;-78
2023/07/23 01:30:58;;;;;;;644.17;598.83;;;;;;;26.40;66.30;96959.16;5068166;28;20185;-80
2023/07/23 01:33:26;;;;;;;640.37;596.13;;;;;;;26.56;66.23;96990.19;5067022;28;20197;-75
2023/07/23 01:35:55;;;;;;;596.27;555.87;;;;;;;26.43;66.51;97013.78;5068276;28;20280;-77
2023/07/23 01:38:23;;;;;;;636.43;593.43;;;;;;;26.49;66.52;97024.56;5050463;28;20194;-75
2023/07/23 01:40:51;;;;;;;701.50;654.23;;;;;;;26.48;65.86;97035.38;5069577;28;20217;-72
2023/07/23 01:43:19;;;;;;;733.33;686.80;;;;;;;25.09;72.52;97018.56;5069710;28;20280;-82
2023/07/23 01:45:46;;;;;;;711.33;664.07;;;;;;;24.90;74.16;96982.56;5068350;28;20250;-73
2023/07/23 01:48:15;;;;;;;636.43;593.63;;;;;;;25.27;72.86;96978.69;5068543;28;20221;-72
2023/07/23 01:50:42;;;;;;;647.67;603.43;;;;;;;25.57;71.87;97000.19;5067136;28;20242;-77
2023/07/23 01:53:09;;;;;;;631.73;588.50;;;;;;;25.78;71.61;96987.25;5068524;28;20185;-81
2023/07/23 01:55:36;;;;;;;618.43;575.67;;;;;;;26.02;70.51;96985.59;5067425;28;20197;-73
2023/07/23 01:58:03;;;;;;;609.77;567.03;;;;;;;26.14;69.05;96971.00;5068052;28;20225;-73
2023/07/23 02:00:30;;;;;;;576.07;538.70;;;;;;;26.10;68.44;96951.09;5049940;28;20191;-74
2023/07/23 02:02:57;;;;;;;608.83;566.57;;;;;;;25.66;68.91;96946.13;5066067;28;20191;-79
2023/07/23 02:05:25;;;;;;;603.97;562.87;;;;;;;25.55;69.59;96925.25;5051722;28;20208;-76
2023/07/23 02:07:52;;;;;;;610.53;568.07;;;;;;;25.73;68.96;96923.25;5064926;28;20644;-72
2023/07/23 02:10:20;;;;;;;610.80;569.40;;;;;;;26.11;68.14;96942.16;5068986;28;20189;-77
2023/07/23 02:12:47;;;;;;;631.03;587.23;;;;;;;25.99;67.47;96943.47;5064802;28;20193;-76
2023/07/23 02:15:15;;;;;;;673.07;627.27;;;;;;;25.93;67.93;96929.03;5051228;28;20224;-72
2023/07/23 02:17:42;;;;;;;684.03;639.70;;;;;;;25.97;67.54;96927.69;5065450;28;20185;-75
2023/07/23 02:20:29;;;;;;;685.40;639.00;;;;;;;25.71;67.92;96927.06;5051784;28;20201;-77
2023/07/23 02:22:59;;;;;;;709.97;663.10;;;;;;;25.65;68.75;96931.22;5050478;28;20251;-79
2023/07/23 02:25:26;;;;;;;715.17;667.23;;;;;;;25.73;68.77;96944.47;5047297;28;20193;-73
2023/07/23 02:27:53;;;;;;;719.67;671.53;;;;;;;25.86;67.73;96959.06;5067726;28;20643;-81
2023/07/23 02:30:20;;;;;;;732.03;683.43;;;;;;;26.04;67.36;96970.31;5031551;28;20200;-78
2023/07/23 02:32:47;;;;;;;744.63;696.37;;;;;;;25.57;69.71;96976.31;5066638;28;20271;-82
2023/07/23 02:35:14;;;;;;;787.03;737.00;;;;;;;25.23;71.61;96962.28;5066961;28;20204;-81
2023/07/23 02:37:41;;;;;;;799.97;747.87;;;;;;;25.24;70.97;96968.41;5065600;28;20250;-73
2023/07/23 02:40:08;;;;;;;784.30;734.43;;;;;;;25.25;71.22;96944.38;5066763;28;20644;-78
2023/07/23 02:42:35;;;;;;;824.87;770.37;;;;;;;25.45;70.75;96993.50;5065655;28;20287;-72
2023/07/23 02:45:03;;;;;;;807.73;755.60;;;;;;;25.04;72.13;96981.09;5067295;28;20203;-78
2023/07/23 02:47:30;;;;;;;825.37;770.53;;;;;;;24.97;72.56;97022.50;5064007;28;20214;-73
2023/07/23 02:49:57;;;;;;;834.67;778.80;;;;;;;24.48;75.49;97039.94;5067641;28;20227;-82
2023/07/23 02:52:24;;;;;;;814.80;761.37;;;;;;;24.47;75.55;97008.28;5065766;28;20672;-74
2023/07/23 02:54:51;;;;;;;811.87;758.27;;;;;;;24.05;76.44;96979.88;5065181;28;20191;-76
2023/07/23 02:57:18;;;;;;;808.13;755.40;;;;;;;23.95;78.21;97010.03;5067260;28;20178;-77
2023/07/23 02:59:46;;;;;;;813.03;759.03;;;;;;;23.99;77.51;97009.59;5065297;28;20190;-84
2023/07/23 03:02:14;;;;;;;821.73;764.93;;;;;;;24.23;77.22;97012.44;5067368;28;20208;-75
2023/07/23 03:04:41;;;;;;;823.33;766.53;;;;;;;24.43;76.27;97018.38;5064116;28;20252;-77
2023/07/23 03:07:09;;;;;;;819.17;762.97;;;;;;;24.73;75.03;97009.97;5066813;28;20191;-81
2023/07/23 03:09:36;;;;;;;832.83;774.03;;;;;;;24.90;73.90;97029.41;5065031;28;20238;-75
2023/07/23 03:12:04;;;;;;;832.67;774.93;;;;;;;25.18;72.66;97049.44;5067823;28;20199;-82
2023/07/23 03:14:31;;;;;;;837.83;778.97;;;;;;;25.16;73.09;97048.75;5068632;28;20199;-78
2023/07/23 03:16:58;;;;;;;858.83;794.30;;;;;;;25.31;72.17;97049.78;5074075;28;20202;-77
2023/07/23 03:19:25;;;;;;;838.17;781.73;;;;;;;25.30;71.77;97040.19;5076108;28;20217;-75
2023/07/23 03:21:52;;;;;;;839.70;783.17;;;;;;;25.49;70.83;97036.47;5074894;28;20196;-75
2023/07/23 03:24:20;;;;;;;834.23;779.10;;;;;;;25.18;71.12;97038.81;5055362;28;20209;-80
2023/07/23 03:26:47;;;;;;;813.47;760.10;;;;;;;25.02;72.42;97033.44;5050936;28;20184;-84
2023/07/23 03:29:14;;;;;;;831.73;775.93;;;;;;;25.21;71.83;97027.88;5067412;28;20654;-72
2023/07/23 03:31:41;;;;;;;812.00;759.63;;;;;;;25.52;70.69;97036.97;5067290;28;20283;-78
2023/07/23 03:34:08;;;;;;;830.83;775.93;;;;;;;25.17;71.52;97005.34;5065069;28;20192;-77
2023/07/23 03:36:35;;;;;;;833.73;779.03;;;;;;;25.04;72.66;97003.13;5066445;28;20226;-74
2023/07/23 03:39:03;;;;;;;838.77;783.10;;;;;;;25.44;71.11;97018.38;5065461;28;20227;-78
2023/07/23 03:41:30;;;;;;;840.63;784.90;;;;;;;25.67;69.78;97034.50;5066645;28;20577;-78
2023/07/23 03:43:57;;;;;;;843.73;788.13;;;;;;;25.36;70.35;97014.84;5056964;28;20942;-83
2023/07/23 03:46:24;;;;;;;805.47;753.00;;;;;;;25.83;69.31;97030.03;5047722;28;20670;-73
2023/07/23 03:48:51;;;;;;;795.93;745.43;;;;;;;25.94;69.02;97012.97;5048082;28;20221;-79
2023/07/23 03:51:19;;;;;;;820.77;767.20;;;;;;;26.26;67.64;97015.63;5046245;28;20285;-76
2023/07/23 03:53:46;;;;;;;795.20;744.87;;;;;;;26.41;67.36;97029.06;5053356;28;20193;-76
2023/07/23 03:56:14;;;;;;;815.70;762.77;;;;;;;26.66;66.08;97021.88;5064380;28;20201;-80
2023/07/23 03:58:41;;;;;;;849.73;794.13;;;;;;;27.00;65.28;97023.28;5067608;28;20261;-76
2023/07/23 04:01:08;;;;;;;868.57;812.00;;;;;;;27.37;64.34;97019.97;5067746;28;20223;-76
2023/07/23 04:03:35;;;;;;;880.40;822.50;;;;;;;27.44;64.08;97012.97;5068240;28;20185;-75
2023/07/23 04:06:02;;;;;;;875.07;819.33;;;;;;;27.70;63.04;97020.66;5068572;28;20251;-77
2023/07/23 04:08:29;;;;;;;907.23;847.13;;;;;;;27.81;63.04;97029.03;5074370;28;20212;-72
2023/07/23 04:10:56;;;;;;;889.20;832.63;;;;;;;27.91;62.17;97018.13;5089186;28;20284;-75
2023/07/23 04:13:23;;;;;;;894.00;835.90;;;;;;;28.11;62.19;97027.31;5067524;28;20184;-72
2023/07/23 04:15:50;;;;;;;907.13;848.20;;;;;;;28.40;60.51;97015.94;5070631;28;20184;-75
2023/07/23 04:18:18;;;;;;;923.93;863.50;;;;;;;28.41;60.43;97028.22;5069788;28;20242;-79
2023/07/23 04:20:45;;;;;;;928.07;866.20;;;;;;;28.27;60.42;97019.22;5070319;28;20208;-72
2023/07/23 04:23:12;;;;;;;938.13;876.67;;;;;;;28.43;60.54;97010.22;5018550;28;20189;-72
2023/07/23 04:25:39;;;;;;;941.07;879.60;;;;;;;28.60;59.97;97025.09;5032874;28;20569;-77
2023/07/23 04:28:07;;;;;;;958.77;890.43;;;;;;;29.00;58.40;97023.81;5065917;28;20205;-78
2023/07/23 04:30:34;;;;;;;972.40;903.00;;;;;;;28.67;59.73;97026.00;5064558;28;20262;-79
2023/07/23 04:33:01;;;;;;;990.43;909.77;;;;;;;28.88;58.95;97037.59;5085343;28;20196;-71
2023/07/23 04:35:28;;;;;;;965.90;883.67;;;;;;;28.54;59.85;97033.78;5079208;28;20185;-78
2023/07/23 04:37:55;;;;;;;973.37;892.60;;;;;;;28.91;58.71;97023.88;5074010;28;20698;-77
2023/07/23 04:40:24;;;;;;;981.23;898.87;;;;;;;29.27;57.84;97057.84;5063787;28;20202;-79
2023/07/23 04:42:51;;;;;;;974.60;899.23;;;;;;;29.18;57.64;97042.97;5051453;28;20193;-78
2023/07/23 04:45:18;;;;;;;964.83;895.97;;;;;;;29.21;57.47;97040.75;5068637;28;20278;-81
2023/07/23 04:47:45;;;;;;;963.73;896.90;;;;;;;29.15;58.21;97065.50;5068245;28;20189;-85
2023/07/23 04:50:13;;;;;;;960.73;895.37;;;;;;;29.15;58.55;97033.50;5086506;28;20220;-78
2023/07/23 04:52:40;;;;;;;945.73;883.47;;;;;;;29.12;58.51;97049.00;5061925;28;20595;-75
2023/07/23 04:55:08;;;;;;;955.67;891.10;;;;;;;29.13;58.92;97066.66;5069637;28;20220;-72
2023/07/23 04:57:35;;;;;;;839.30;784.37;;;;;;;29.27;59.34;97063.19;5031679;28;20263;-73
2023/07/23 05:00:05;;;;;;;879.50;822.20;;;;;;;29.57;57.87;97057.59;5072578;28;20279;-72
2023/07/23 05:02:33;;;;;;;909.27;850.70;;;;;;;29.95;58.21;97076.97;5071643;28;20600;-72
2023/07/23 05:05:00;;;;;;;961.00;897.67;;;;;;;30.05;57.07;97079.31;5070924;28;20220;-74
2023/07/23 05:07:29;;;;;;;962.60;897.27;;;;;;;30.05;57.30;97080.16;5072488;28;20558;-73
2023/07/23 05:09:56;;;;;;;993.53;921.20;;;;;;;29.90;57.88;97071.38;5068043;28;20262;-77
2023/07/23 05:12:23;;;;;;;995.30;923.00;;;;;;;29.97;58.23;97066.91;5069671;28;20272;-76
2023/07/23 05:14:50;;;;;;;997.97;924.53;;;;;;;30.35;56.63;97073.69;5070509;28;20733;-79
2023/07/23 05:17:17;;;;;;;996.27;922.37;;;;;;;30.20;56.84;97077.41;5071862;28;20195;-79
2023/07/23 05:19:44;;;;;;;991.60;922.70;;;;;;;30.10;55.97;97083.09;5071035;28;20204;-73
2023/07/23 05:22:11;;;;;;;997.83;924.57;;;;;;;29.90;57.54;97078.56;5072048;28;20353;-79
2023/07/23 05:24:38;;;;;;;994.83;923.53;;;;;;;29.80;57.05;97065.50;5055301;28;20284;-76
2023/07/23 05:27:06;;;;;;;1006.37;930.80;;;;;;;29.81;57.00;97071.66;5086974;28;20189;-72
2023/07/23 05:29:33;;;;;;;994.83;922.70;;;;;;;29.74;57.17;97082.28;5054133;28;20216;-75
2023/07/23 05:32:00;;;;;;;990.17;920.80;;;;;;;29.66;58.09;97088.53;5087612;28;20196;-80
2023/07/23 05:34:27;;;;;;;993.17;923.17;;;;;;;29.28;58.79;97087.03;5090089;28;20276;-75
2023/07/23 05:36:54;;;;;;;971.00;906.10;;;;;;;28.61;60.18;97094.19;5088452;28;20195;-88
2023/07/23 05:39:21;;;;;;;948.50;885.20;;;;;;;28.73;60.51;97081.25;5070594;28;20549;-77
2023/07/23 05:41:48;;;;;;;923.17;862.50;;;;;;;28.62;60.65;97089.72;5090148;28;20192;-77
2023/07/23 05:44:16;;;;;;;938.33;875.87;;;;;;;28.88;59.94;97088.28;5087671;28;20207;-74
2023/07/23 05:46:43;;;;;;;905.27;846.70;;;;;;;29.04;60.29;97073.13;5088028;28;20251;-73
2023/07/23 05:49:10;;;;;;;943.63;881.33;;;;;;;29.39;58.45;97067.84;5088271;28;20231;-74
2023/07/23 05:51:37;;;;;;;958.50;894.70;;;;;;;29.87;57.91;97082.44;5072304;28;20195;-73
2023/07/23 05:54:04;;;;;;;963.67;900.47;;;;;;;29.94;57.50;97064.63;5067904;28;20185;-77
2023/07/23 05:56:31;;;;;;;977.87;912.03;;;;;;;30.24;57.22;97087.53;5068893;28;20201;-80
2023/07/23 05:58:59;;;;;;;976.23;911.60;;;;;;;30.54;55.82;97075.69;5071630;28;20184;-83
2023/07/23 06:01:26;;;;;;;983.67;918.33;;;;;;;30.44;56.10;97087.72;5065966;28;20220;-77
2023/07/23 06:03:54;;;;;;;978.20;913.47;;;;;;;30.04;55.75;97073.16;5070091;28;20787;-76
2023/07/23 06:06:23;;;;;;;966.23;902.90;;;;;;;30.31;56.25;97088.47;5069613;28;20195;-75
2023/07/23 06:08:50;;;;;;;918.20;858.80;;;;;;;30.33;54.82;97083.75;5089950;28;20213;-76
2023/07/23 06:11:57;;;;;;;948.83;887.30;;;;;;;30.38;54.44;97081.31;5071294;28;20611;-76
2023/07/23 06:14:54;;;;;;;855.83;799.30;;;;;;;30.38;54.47;97065.28;5069610;28;20187;-77
2023/07/23 06:17:21;;;;;;;730.80;680.50;;;;;;;30.56;55.41;97061.31;5038178;28;20193;-72
2023/07/23 06:19:48;;;;;;;773.47;721.20;;;;;;;29.99;55.96;97067.56;5087743;28;20644;-72
2023/07/23 06:22:15;;;;;;;790.03;736.77;;;;;;;29.76;56.57;97058.06;5071426;28;20189;-73
2023/07/23 06:24:45;;;;;;;717.03;668.43;;;;;;;30.07;55.24;97067.41;5087925;28;20189;-77
2023/07/23 06:27:13;;;;;;;759.73;709.00;;;;;;;29.64;56.62;97065.69;5069859;28;20299;-75
2023/07/23 06:29:39;;;;;;;753.07;702.27;;;;;;;29.96;56.57;97067.94;5089366;28;20784;-73
2023/07/23 06:32:08;;;;;;;774.63;722.37;;;;;;;30.12;55.31;97056.16;5087847;28;20653;-75
2023/07/23 06:34:35;;;;;;;857.17;800.53;;;;;;;30.31;54.54;97061.75;5067323;28;20201;-78
2023/07/23 06:37:02;;;;;;;956.47;894.33;;;;;;;30.76;54.00;97062.28;5058277;28;20616;-77
2023/07/23 06:39:29;;;;;;;940.80;878.10;;;;;;;30.75;54.70;97057.97;5037827;28;20188;-78
2023/07/23 06:41:56;;;;;;;882.03;824.53;;;;;;;30.76;55.04;97067.63;5052228;28;20199;-75
2023/07/23 06:45:03;;;;;;;963.23;899.83;;;;;;;31.15;52.38;97067.91;5091041;28;20216;-76
2023/07/23 06:47:44;;;;;;;976.13;912.00;;;;;;;31.21;50.61;97059.09;5091439;28;20206;-75
2023/07/23 06:50:17;;;;;;;978.60;914.40;;;;;;;30.97;50.38;97055.06;5072502;28;20208;-80
2023/07/23 06:52:45;;;;;;;976.93;912.63;;;;;;;31.01;50.37;97053.66;5072056;28;20180;-84
2023/07/23 06:55:12;;;;;;;861.17;804.87;;;;;;;31.06;48.93;97039.66;5051813;28;20197;-73
2023/07/23 06:57:39;;;;;;;973.93;907.27;;;;;;;31.31;46.97;97049.69;5067496;28;20683;-76
2023/07/23 07:00:12;;;;;;;807.13;753.53;;;;;;;31.49;46.81;97051.03;5082545;28;20196;-77
2023/07/23 07:02:39;;;;;;;37.50;27.10;;;;;;;31.33;45.22;97026.22;5068832;28;20188;-74
2023/07/23 07:05:06;;;;;;;37.47;30.90;;;;;;;31.41;45.68;97061.91;5069394;28;20195;-79
2023/07/23 07:07:35;;;;;;;40.33;34.15;;;;;;;31.69;44.92;97057.28;5078460;28;20283;-72
2023/07/23 07:10:03;;;;;;;39.03;14.30;;;;;;;31.79;45.58;97053.19;5052377;28;20232;-74
2023/07/23 07:12:30;;;;;;;20.50;8.07;;;;;;;32.08;44.87;97071.63;5069739;28;20625;-73
2023/07/23 07:14:57;;;;;;;28.48;11.07;;;;;;;32.13;43.48;97075.56;5086840;28;20620;-74
2023/07/23 07:17:24;;;;;;;24.60;9.38;;;;;;;32.18;42.61;97075.75;5069911;28;20196;-73
2023/07/23 07:19:51;;;;;;;27.00;9.77;;;;;;;31.94;41.44;97071.81;5051723;28;20324;-75
2023/07/23 07:22:18;;;;;;;30.65;10.52;;;;;;;32.03;41.34;97063.38;5070056;28;20189;-75
2023/07/23 07:24:45;;;;;;;37.13;12.18;;;;;;;32.12;40.61;97057.81;5086535;28;20200;-73
2023/07/23 07:27:14;;;;;;;49.55;12.57;;;;;;;32.22;39.80;97068.94;5087732;28;20212;-83
2023/07/23 07:29:42;;;;;;;20.80;8.98;;;;;;;32.21;38.12;97061.97;5068858;28;20224;-83
2023/07/23 07:32:09;;;;;;;37.35;12.68;;;;;;;32.12;37.99;97074.72;5068488;28;20193;-73
2023/07/23 07:34:36;;;;;;;19.42;8.45;;;;;;;31.43;37.39;96953.56;5052963;28;20616;-77
2023/07/23 07:37:03;;;;;;;33.78;11.10;;;;;;;31.76;38.67;97044.69;5067504;28;20192;-77
2023/07/23 07:39:30;;;;;;;33.13;11.95;;;;;;;31.86;38.84;97067.41;5069754;28;20192;-80
2023/07/23 07:41:57;;;;;;;43.38;15.05;;;;;;;31.74;41.67;97076.22;5067609;28;20238;-73
2023/07/23 07:44:24;;;;;;;33.75;12.55;;;;;;;31.25;39.77;97074.56;5069479;28;20192;-75
2023/07/23 07:46:51;;;;;;;25.48;10.60;;;;;;;31.40;38.69;97058.41;5068346;28;20195;-81
2023/07/23 07:49:18;;;;;;;24.88;10.88;;;;;;;31.52;37.96;97072.88;5051087;28;20254;-74
2023/07/23 07:51:47;;;;;;;18.73;8.68;;;;;;;31.58;36.92;97076.59;5087183;28;20185;-73
2023/07/23 07:54:16;;;;;;;21.90;8.70;;;;;;;31.68;36.70;97063.63;5085875;28;20279;-71
2023/07/23 07:56:43;;;;;;;30.70;10.80;;;;;;;31.43;37.30;97066.03;5069638;28;20590;-76
2023/07/23 07:59:11;;;;;;;31.53;11.47;;;;;;;31.21;37.30;97072.47;5051127;28;20323;-72
2023/07/23 08:01:38;;;;;;;33.70;15.47;;;;;;;31.01;38.34;97068.88;5069391;28;20601;-73
2023/07/23 08:04:07;;;;;;;24.07;12.63;;;;;;;31.32;38.68;97066.56;5051463;28;20209;-75
2023/07/23 08:06:38;;;;;;;29.70;11.18;;;;;;;31.35;37.18;97055.44;5086988;28;20184;-79
2023/07/23 08:09:09;;;;;;;19.33;8.50;;;;;;;31.40;37.13;97045.00;5069736;28;20248;-76
2023/07/23 08:11:38;;;;;;;27.60;9.70;;;;;;;31.39;36.49;97047.88;5032980;28;20367;-71
2023/07/23 08:14:13;;;;;;;29.83;10.77;;;;;;;31.46;37.50;97060.28;5084626;28;20198;-74
2023/07/23 08:16:40;;;;;;;28.42;9.85;;;;;;;31.39;38.07;97069.28;5067516;28;20682;-78
2023/07/23 08:19:08;;;;;;;28.07;10.80;;;;;;;31.33;37.14;97052.16;5069049;28;20581;-75
2023/07/23 08:21:35;;;;;;;24.10;8.85;;;;;;;31.29;34.74;97021.44;5080023;28;20239;-75
2023/07/23 08:24:03;;;;;;;39.30;11.43;;;;;;;31.40;37.29;97066.44;5068087;28;20199;-76
2023/07/23 08:26:32;;;;;;;19.90;7.43;;;;;;;31.46;38.09;97064.81;5088297;28;20271;-75
2023/07/23 08:29:02;;;;;;;32.70;9.70;;;;;;;31.52;38.97;97075.53;5067423;28;20215;-76
2023/07/23 08:31:30;;;;;;;38.05;11.27;;;;;;;31.55;35.75;97056.38;5090768;28;20224;-76
2023/07/23 08:34:01;;;;;;;31.85;9.50;;;;;;;31.43;37.46;97071.38;5089023;28;20838;-73
2023/07/23 08:36:30;;;;;;;37.17;11.32;;;;;;;31.51;39.25;97073.88;5071758;28;20878;-78
2023/07/23 08:38:57;;;;;;;25.10;8.73;;;;;;;31.30;35.73;97061.41;5083536;28;20268;-71
2023/07/23 08:41:52;;;;;;;27.77;9.53;;;;;;;31.30;36.81;97064.06;5085033;28;20790;-72
2023/07/23 08:44:28;;;;;;;33.17;9.97;;;;;;;31.38;36.41;97076.47;5071291;28;20204;-77
2023/07/23 08:47:06;;;;;;;26.23;8.75;;;;;;;31.34;35.05;97053.81;5088694;28;20211;-71
2023/07/23 08:49:33;;;;;;;33.40;10.90;;;;;;;31.67;35.38;97054.81;5071961;28;20196;-75
2023/07/23 08:52:03;;;;;;;21.57;7.73;;;;;;;31.67;35.17;97060.16;5090380;28;20196;-76
2023/07/23 08:54:30;;;;;;;33.90;10.15;;;;;;;31.40;34.66;97069.09;5071431;28;20669;-76
2023/07/23 08:56:58;;;;;;;27.13;8.80;;;;;;;31.27;35.45;97058.28;5091140;28;20200;-73
2023/07/23 08:59:27;;;;;;;35.33;9.87;;;;;;;31.41;33.65;97051.19;5088462;28;20228;-75
2023/07/23 09:01:56;;;;;;;27.63;8.97;;;;;;;31.28;34.61;97062.66;5090894;28;20216;-78
2023/07/23 09:04:23;;;;;;;27.00;8.60;;;;;;;31.21;34.99;97067.13;5089642;28;20203;-76
2023/07/23 09:06:52;;;;;;;26.35;8.82;;;;;;;31.39;33.44;97074.63;5091346;28;20192;-76
2023/07/23 09:09:19;;;;;;;16.88;6.82;;;;;;;31.31;34.09;97072.94;5069081;28;20715;-77
2023/07/23 09:11:46;;;;;;;23.20;8.55;;;;;;;31.29;34.89;97065.13;5085034;28;20217;-73
2023/07/23 09:14:15;;;;;;;18.20;7.33;;;;;;;31.40;35.02;97074.47;5055858;28;20257;-75
2023/07/23 09:16:45;;;;;;;25.05;8.68;;;;;;;31.54;36.14;97081.53;5069706;28;20191;-80
2023/07/23 09:19:20;;;;;;;26.17;9.05;;;;;;;31.37;33.91;97066.78;5090211;28;20193;-73
2023/07/23 09:21:47;;;;;;;25.20;9.93;;;;;;;31.47;34.50;97082.53;5070519;28;20204;-79
2023/07/23 09:24:16;;;;;;;28.80;10.23;;;;;;;31.32;34.20;97063.91;5054581;28;20547;-78
2023/07/23 09:26:44;;;;;;;18.08;7.63;;;;;;;31.29;35.21;97074.97;5054646;28;20201;-77
2023/07/23 09:29:15;;;;;;;21.00;7.70;;;;;;;31.25;35.54;97093.31;5086150;28;20216;-74
2023/07/23 09:31:44;;;;;;;35.92;11.48;;;;;;;31.31;35.54;97094.34;5065390;28;20224;-73
2023/07/23 09:34:18;;;;;;;29.47;10.37;;;;;;;31.13;33.39;97094.06;5088175;28;20621;-77
2023/07/23 09:36:45;;;;;;;27.13;11.27;;;;;;;31.34;35.46;97088.63;5087858;28;20197;-79
2023/07/23 09:39:12;;;;;;;17.25;8.90;;;;;;;31.42;32.87;97095.69;5053503;28;20192;-78
2023/07/23 09:41:39;;;;;;;39.25;13.20;;;;;;;31.53;34.54;97095.94;5086594;28;20203;-74
2023/07/23 09:44:12;;;;;;;30.90;10.83;;;;;;;31.66;32.23;97093.31;5070812;28;20679;-78
2023/07/23 09:46:44;;;;;;;27.73;10.63;;;;;;;31.28;31.67;97095.56;5067298;28;20246;-76
2023/07/23 09:49:13;;;;;;;32.93;20.73;;;;;;;31.19;33.89;97095.94;5091238;28;20188;-78
2023/07/23 09:51:50;;;;;;;35.87;17.00;;;;;;;31.39;33.74;97109.44;5070309;28;20232;-83
2023/07/23 09:54:19;;;;;;;26.55;13.63;;;;;;;31.48;34.19;97076.13;5096542;28;20189;-77
2023/07/23 09:56:50;;;;;;;18.25;10.88;;;;;;;31.85;33.34;97105.97;5063241;28;20193;-76
2023/07/23 09:59:18;;;;;;;21.43;10.03;;;;;;;31.58;32.44;97066.72;5092647;28;20220;-73
2023/07/23 10:01:47;;;;;;;24.67;11.10;;;;;;;31.74;30.35;97066.34;5073142;28;20216;-77
2023/07/23 10:04:16;;;;;;;36.30;32.23;;;;;;;31.49;32.45;97067.91;5070173;28;20234;-75
2023/07/23 10:06:43;;;;;;;40.15;32.83;;;;;;;31.48;33.40;97076.97;5071791;28;20203;-76
2023/07/23 10:09:12;;;;;;;239.13;221.30;;;;;;;31.51;33.17;97073.06;5069474;28;20229;-73
2023/07/23 10:11:39;;;;;;;272.50;256.20;;;;;;;31.38;33.85;97063.09;5054921;28;20220;-74
2023/07/23 10:14:07;;;;;;;269.43;254.43;;;;;;;31.09;33.78;97058.00;5069888;28;20592;-76
2023/07/23 10:16:39;;;;;;;224.43;210.70;;;;;;;31.25;35.20;97071.06;5087878;28;20196;-75
2023/07/23 10:19:08;;;;;;;236.83;222.47;;;;;;;31.41;34.03;97084.13;5071247;28;20208;-73
2023/07/23 10:21:36;;;;;;;293.80;274.23;;;;;;;31.18;34.85;97086.28;5087310;28;20679;-77
2023/07/23 10:24:04;;;;;;;251.90;235.07;;;;;;;31.35;34.50;97087.56;5065618;28;20231;-72
2023/07/23 10:26:40;;;;;;;219.53;205.73;;;;;;;31.57;33.62;97088.34;5087163;28;20195;-76
2023/07/23 10:29:13;;;;;;;272.20;254.70;;;;;;;31.32;35.20;97086.13;5070471;28;20189;-75
2023/07/23 10:31:42;;;;;;;163.60;155.07;;;;;;;31.53;37.19;97077.19;5088805;28;20223;-76
2023/07/23 10:34:21;;;;;;;185.40;174.07;;;;;;;31.52;38.05;97080.91;5051707;28;20211;-74
2023/07/23 10:37:12;;;;;;;178.77;167.90;;;;;;;31.28;36.66;97079.50;5077540;28;20196;-75
2023/07/23 10:39:40;;;;;;;198.27;185.77;;;;;;;31.32;36.66;97082.63;5081041;28;20207;-74
2023/07/23 10:42:08;;;;;;;158.53;148.67;;;;;;;31.18;38.41;97095.09;5088519;28;20197;-74
2023/07/23 10:44:38;;;;;;;179.63;169.73;;;;;;;30.99;38.65;97095.81;5088541;28;20696;-76
2023/07/23 10:47:31;;;;;;;191.63;181.03;;;;;;;31.05;37.31;97091.53;5087561;28;20682;-73
2023/07/23 10:50:12;;;;;;;185.03;173.03;;;;;;;31.35;37.65;97082.22;5069863;28;20196;-73
2023/07/23 10:52:43;;;;;;;153.60;144.87;;;;;;;31.14;39.09;97109.09;5065901;28;20192;-77
2023/07/23 10:55:11;;;;;;;58.20;53.30;;;;;;;31.47;39.38;97080.66;5085094;28;20845;-74
2023/07/23 10:57:41;;;;;;;22.67;15.00;;;;;;;31.04;40.32;97095.22;5086708;28;20193;-73
2023/07/23 11:00:21;;;;;;;28.50;12.67;;;;;;;31.19;37.72;97085.22;5065604;28;20185;-77
2023/07/23 11:02:53;;;;;;;40.95;13.43;;;;;;;30.97;39.81;97084.50;5086090;28;20189;-72
2023/07/23 11:05:24;;;;;;;19.43;8.50;;;;;;;31.05;40.21;97091.53;5065733;28;20222;-74
2023/07/23 11:08:20;;;;;;;28.43;10.23;;;;;;;31.04;38.46;97079.16;5070195;28;20203;-75
2023/07/23 11:10:59;;;;;;;11.57;6.07;;;;;;;31.10;38.34;97081.03;5070117;28;20224;-77
2023/07/23 11:13:32;;;;;;;22.57;8.37;;;;;;;30.88;38.06;97085.66;5068432;28;20722;-72
2023/07/23 11:16:01;;;;;;;27.00;9.17;;;;;;;30.98;38.40;97085.28;5070214;28;20184;-72